createdAt,value
2023-04-19T00:07:51.237Z,2.63
2023-04-19T00:18:00.238Z,3.03
2023-04-19T00:28:05.051Z,2.72
2023-04-19T00:38:07.468Z,2.80
2023-04-19T00:48:09.725Z,2.53
2023-04-19T00:58:14.087Z,3.07
2023-04-19T01:08:15.986Z,2.80
2023-04-19T01:18:19.391Z,2.67
2023-04-19T01:28:23.510Z,3.95
2023-04-19T01:38:30.854Z,3.05
2023-04-19T01:48:36.602Z,2.50
2023-04-19T01:58:38.406Z,3.80
2023-04-19T02:08:40.868Z,3.08
2023-04-19T02:18:48.477Z,3.40
2023-04-19T02:28:53.265Z,3.30
2023-04-19T02:38:56.005Z,3.55
2023-04-19T02:49:01.345Z,3.13
2023-04-19T02:59:04.815Z,2.83
2023-04-19T03:09:06.560Z,3.63
2023-04-19T03:19:08.345Z,4.20
2023-04-19T03:29:14.625Z,5.20
2023-04-19T03:39:17.316Z,4.40
2023-04-19T03:49:19.159Z,5.17
2023-04-19T03:59:21.890Z,5.20
2023-04-19T04:09:25.625Z,5.47
2023-04-19T04:19:27.490Z,6.70
2023-04-19T04:29:32.493Z,6.22
2023-04-19T04:39:39.696Z,5.68
2023-04-19T04:49:41.668Z,6.28
2023-04-19T04:59:43.935Z,6.45
2023-04-19T05:09:45.698Z,5.38
2023-04-19T05:19:47.453Z,6.00
2023-04-19T05:29:59.653Z,5.60
2023-04-19T05:40:01.609Z,5.57
2023-04-19T05:50:04.538Z,6.15
2023-04-19T06:00:08.981Z,6.15
2023-04-19T06:10:10.896Z,4.45
2023-04-19T06:20:14.923Z,4.45
2023-04-19T06:30:21.340Z,4.70
2023-04-19T06:40:24.092Z,5.22
2023-04-19T06:50:27.620Z,5.82
2023-04-19T07:00:29.335Z,5.93
2023-04-19T07:10:31.266Z,4.87
2023-04-19T07:20:33.154Z,5.00
2023-04-19T07:30:36.613Z,3.63
2023-04-19T07:40:38.327Z,3.30
2023-04-19T07:50:40.419Z,2.50
2023-04-19T08:00:42.102Z,2.17
2023-04-19T08:10:44.368Z,2.30
2023-04-19T08:30:50.404Z,2.60
2023-04-19T08:40:53.837Z,2.80
2023-04-19T08:51:05.093Z,2.17
2023-04-19T09:01:11.305Z,2.33
2023-04-19T09:11:20.250Z,2.00
2023-04-19T09:21:29.848Z,2.97
2023-04-19T09:31:47.877Z,2.28
2023-04-19T09:41:54.955Z,2.50
2023-04-19T09:51:58.096Z,2.85
2023-04-19T10:02:01.973Z,3.05
2023-04-19T10:12:19.117Z,3.30
2023-04-19T10:22:28.646Z,3.20
2023-04-19T10:32:38.270Z,4.05
2023-04-19T10:43:11.536Z,5.40
2023-04-19T10:53:51.824Z,4.80
2023-04-19T11:03:57.950Z,4.47
2023-04-19T11:14:04.629Z,4.82
2023-04-19T11:24:11.881Z,4.43
2023-04-19T11:34:15.076Z,4.35
2023-04-19T11:44:21.787Z,4.18
2023-04-19T11:54:27.147Z,5.53
2023-04-19T12:04:32.316Z,5.70
2023-04-19T12:14:35.724Z,4.78
2023-04-19T12:24:39.787Z,5.10
2023-04-19T12:34:41.946Z,6.28
2023-04-19T12:44:46.937Z,7.10
2023-04-19T12:54:48.668Z,6.38
2023-04-19T13:04:52.857Z,7.10
2023-04-19T13:14:54.890Z,6.10
2023-04-19T13:24:57.597Z,5.82
2023-04-19T13:35:01.247Z,5.10
2023-04-19T13:45:03.354Z,5.13
2023-04-19T13:55:07.813Z,5.45
2023-04-19T14:05:10.905Z,8.80
2023-04-19T14:15:13.606Z,10.23
2023-04-19T14:25:20.645Z,9.15
2023-04-19T14:35:22.857Z,8.93
2023-04-19T14:45:27.796Z,7.55
2023-04-19T14:55:30.963Z,6.95
2023-04-19T15:05:36.602Z,6.68
2023-04-19T15:15:39.342Z,6.60
2023-04-19T15:25:49.864Z,6.22
2023-04-19T15:35:54.615Z,6.60
2023-04-19T15:45:56.823Z,5.38
2023-04-19T15:55:58.523Z,4.80
2023-04-19T16:06:00.182Z,3.55
2023-04-19T16:26:04.345Z,2.58
2023-04-19T16:36:06.536Z,3.00
2023-04-19T16:46:11.348Z,3.63
2023-04-19T16:56:14.280Z,3.20
2023-04-19T17:06:23.305Z,3.67
2023-04-19T17:16:26.101Z,4.85
2023-04-19T17:26:34.481Z,4.63
2023-04-19T17:36:43.124Z,4.95
2023-04-19T17:46:45.930Z,6.57
2023-04-19T18:17:08.660Z,8.45
2023-04-19T18:27:15.510Z,7.30
2023-04-19T18:37:19.273Z,7.30
2023-04-19T18:47:26.756Z,7.97
2023-04-19T18:57:33.173Z,7.13
2023-04-19T19:07:43.289Z,7.63
2023-04-19T19:17:49.880Z,7.82
2023-04-19T19:28:07.021Z,8.02
2023-04-19T19:38:13.984Z,8.32
2023-04-19T19:48:17.835Z,9.05
2023-04-19T20:08:44.364Z,8.52
2023-04-19T20:18:49.748Z,9.43
2023-04-19T20:28:53.823Z,8.98
2023-04-19T20:38:57.666Z,9.27
2023-04-19T20:49:00.104Z,9.68
2023-04-19T20:59:02.077Z,9.52
2023-04-19T21:09:06.138Z,9.23
2023-04-19T21:19:07.810Z,9.02
2023-04-19T21:29:09.492Z,9.32
2023-04-19T21:39:11.079Z,10.35
2023-04-19T21:49:12.913Z,9.45
2023-04-19T21:59:15.535Z,9.65
2023-04-19T22:09:20.352Z,9.70
2023-04-19T22:19:26.887Z,9.07
2023-04-19T22:29:28.702Z,10.02
2023-04-19T22:39:30.593Z,11.02
2023-04-19T22:49:35.251Z,11.68
2023-04-19T22:59:36.895Z,11.98
2023-04-19T23:09:39.464Z,11.43
2023-04-19T23:19:42.135Z,12.32
2023-04-19T23:29:44.131Z,13.38
2023-04-19T23:39:45.857Z,12.65
2023-04-19T23:49:47.775Z,11.95
2023-04-19T23:59:50.720Z,12.57
